createdAt,value
2022-10-24T00:01:19.423Z,4.45
2022-10-24T00:03:46.257Z,4.63
2022-10-24T00:06:14.043Z,4.93
2022-10-24T00:08:42.949Z,6.13
2022-10-24T00:11:16.790Z,5.22
2022-10-24T00:13:44.189Z,4.93
2022-10-24T00:16:11.820Z,5.90
2022-10-24T00:18:38.877Z,4.78
2022-10-24T00:21:06.722Z,13.32
2022-10-24T00:23:33.753Z,6.88
2022-10-24T00:26:02.093Z,4.68
2022-10-24T00:28:30.138Z,4.35
2022-10-24T00:30:57.329Z,4.45
2022-10-24T00:33:24.761Z,4.47
2022-10-24T00:35:51.674Z,6.03
2022-10-24T00:38:18.550Z,5.50
2022-10-24T00:40:45.522Z,6.43
2022-10-24T00:43:21.917Z,4.72
2022-10-24T00:45:57.036Z,4.72
2022-10-24T00:48:47.031Z,4.75
2022-10-24T00:51:24.873Z,4.70
2022-10-24T00:54:00.949Z,4.80
2022-10-24T00:56:32.675Z,4.78
2022-10-24T00:59:01.660Z,5.47
2022-10-24T01:01:28.770Z,5.00
2022-10-24T01:03:55.710Z,5.93
2022-10-24T01:07:00.219Z,4.95
2022-10-24T01:09:54.729Z,6.50
2022-10-24T01:12:48.812Z,9.50
2022-10-24T01:15:34.531Z,4.45
2022-10-24T01:18:26.723Z,4.43
2022-10-24T01:21:12.846Z,4.63
2022-10-24T01:24:02.886Z,6.55
2022-10-24T01:26:57.230Z,7.95
2022-10-24T01:29:48.938Z,4.78
2022-10-24T01:32:36.667Z,5.25
2022-10-24T01:35:21.085Z,6.10
2022-10-24T01:37:51.774Z,5.10
2022-10-24T01:40:39.872Z,6.40
2022-10-24T01:43:12.059Z,5.57
2022-10-24T01:45:45.023Z,6.65
2022-10-24T01:48:17.475Z,15.05
2022-10-24T01:50:47.626Z,5.68
2022-10-24T01:53:15.318Z,6.07
2022-10-24T01:55:42.986Z,5.47
2022-10-24T01:58:09.799Z,5.30
2022-10-24T02:00:37.017Z,6.40
2022-10-24T02:03:26.935Z,5.68
2022-10-24T02:05:59.499Z,5.38
2022-10-24T02:08:33.045Z,7.18
2022-10-24T02:11:04.591Z,6.07
2022-10-24T02:13:47.155Z,5.88
2022-10-24T02:16:18.357Z,5.53
2022-10-24T02:18:46.823Z,5.93
2022-10-24T02:21:27.894Z,6.80
2022-10-24T02:24:06.778Z,6.65
2022-10-24T02:26:57.327Z,8.13
2022-10-24T02:29:41.841Z,7.63
2022-10-24T02:32:13.626Z,6.90
2022-10-24T02:34:42.420Z,6.32
2022-10-24T02:37:12.228Z,6.55
2022-10-24T02:39:41.148Z,8.48
2022-10-24T02:42:09.544Z,7.43
2022-10-24T02:44:37.160Z,9.50
2022-10-24T02:47:06.863Z,10.18
2022-10-24T02:49:33.834Z,11.65
2022-10-24T02:52:01.882Z,7.15
2022-10-24T02:54:28.664Z,10.43
2022-10-24T02:57:00.689Z,7.90
2022-10-24T02:59:27.523Z,12.52
2022-10-24T03:01:54.688Z,7.72
2022-10-24T03:04:21.541Z,7.55
2022-10-24T03:06:48.530Z,7.00
2022-10-24T03:09:15.296Z,8.02
2022-10-24T03:11:42.182Z,6.50
2022-10-24T03:14:09.221Z,17.35
2022-10-24T03:16:36.306Z,7.32
2022-10-24T03:19:03.394Z,7.35
2022-10-24T03:21:30.642Z,9.07
2022-10-24T03:23:57.935Z,8.98
2022-10-24T03:26:25.000Z,7.28
2022-10-24T03:28:51.960Z,6.88
2022-10-24T03:31:19.015Z,6.55
2022-10-24T03:33:45.970Z,7.57
2022-10-24T03:36:13.159Z,14.07
2022-10-24T03:38:40.180Z,7.72
2022-10-24T03:41:07.374Z,6.35
2022-10-24T03:43:34.517Z,10.23
2022-10-24T03:46:01.556Z,14.27
2022-10-24T03:48:28.747Z,7.90
2022-10-24T03:50:55.998Z,7.60
2022-10-24T03:53:23.030Z,7.95
2022-10-24T03:55:50.373Z,8.57
2022-10-24T03:58:17.953Z,7.65
2022-10-24T04:00:45.082Z,7.93
2022-10-24T04:03:12.226Z,8.10
2022-10-24T04:05:40.213Z,13.15
2022-10-24T04:08:07.734Z,8.05
2022-10-24T04:10:34.862Z,10.18
2022-10-24T04:13:02.147Z,10.90
2022-10-24T04:15:29.391Z,7.93
2022-10-24T04:17:56.389Z,9.50
2022-10-24T04:20:23.587Z,9.93
2022-10-24T04:22:50.778Z,12.13
2022-10-24T04:25:18.231Z,30.50
2022-10-24T04:27:45.839Z,27.83
2022-10-24T04:30:16.647Z,73.72
2022-10-24T04:32:45.031Z,65.03
2022-10-24T04:35:12.809Z,37.33
2022-10-24T04:37:39.846Z,20.67
2022-10-24T04:40:07.690Z,14.80
2022-10-24T04:42:34.804Z,16.15
2022-10-24T04:45:01.776Z,12.30
2022-10-24T04:47:28.762Z,18.13
2022-10-24T04:49:55.765Z,26.13
2022-10-24T04:52:22.850Z,29.42
2022-10-24T04:54:50.125Z,65.75
2022-10-24T04:57:17.147Z,82.03
2022-10-24T04:59:44.231Z,111.88
2022-10-24T05:02:11.402Z,111.97
2022-10-24T05:04:38.430Z,104.35
2022-10-24T05:07:05.337Z,117.47
2022-10-24T05:09:32.578Z,138.65
2022-10-24T05:11:59.526Z,119.82
2022-10-24T05:14:26.453Z,142.65
2022-10-24T05:16:53.323Z,115.32
2022-10-24T05:19:20.369Z,111.82
2022-10-24T05:21:47.494Z,100.03
2022-10-24T05:24:14.540Z,101.45
2022-10-24T05:26:41.580Z,100.93
2022-10-24T05:29:08.824Z,88.90
2022-10-24T05:31:35.901Z,89.28
2022-10-24T05:34:02.856Z,91.65
2022-10-24T05:36:29.953Z,101.15
2022-10-24T05:38:57.044Z,109.85
2022-10-24T05:41:26.814Z,130.32
2022-10-24T05:43:53.855Z,142.85
2022-10-24T05:46:21.094Z,150.25
2022-10-24T05:48:47.965Z,145.93
2022-10-24T05:51:15.263Z,140.60
2022-10-24T05:53:42.539Z,116.72
2022-10-24T05:56:13.280Z,114.25
2022-10-24T05:58:40.427Z,103.00
2022-10-24T06:01:36.578Z,86.75
2022-10-24T06:04:07.806Z,102.35
2022-10-24T06:06:46.976Z,89.32
2022-10-24T06:09:21.532Z,83.60
2022-10-24T06:12:01.903Z,91.70
2022-10-24T06:14:34.735Z,89.60
2022-10-24T06:17:03.195Z,57.88
2022-10-24T06:19:37.786Z,61.03
2022-10-24T06:22:08.357Z,38.43
2022-10-24T06:24:41.477Z,37.05
2022-10-24T06:27:08.539Z,35.97
2022-10-24T06:29:36.804Z,29.40
2022-10-24T06:32:04.452Z,26.20
2022-10-24T06:34:31.410Z,26.50
2022-10-24T06:37:02.922Z,17.77
2022-10-24T06:39:30.129Z,30.10
2022-10-24T06:41:57.590Z,22.73
2022-10-24T06:44:27.027Z,18.50
2022-10-24T06:46:54.035Z,16.63
2022-10-24T06:49:21.483Z,18.02
2022-10-24T06:51:55.074Z,13.70
2022-10-24T06:54:24.190Z,14.32
2022-10-24T06:56:53.671Z,19.35
2022-10-24T06:59:21.281Z,22.98
2022-10-24T07:01:48.626Z,13.90
2022-10-24T07:04:19.016Z,14.50
2022-10-24T07:06:46.644Z,16.48
2022-10-24T07:09:18.422Z,18.45
2022-10-24T07:11:45.805Z,14.93
2022-10-24T07:14:15.108Z,13.35
2022-10-24T07:16:42.230Z,14.23
2022-10-24T07:19:09.378Z,19.00
2022-10-24T07:21:43.801Z,15.75
2022-10-24T07:24:13.750Z,14.15
2022-10-24T07:26:40.858Z,14.63
2022-10-24T07:29:19.582Z,18.23
2022-10-24T07:31:53.502Z,16.50
2022-10-24T07:34:20.973Z,19.50
2022-10-24T07:36:54.040Z,24.75
2022-10-24T07:39:34.849Z,20.38
2022-10-24T07:42:09.230Z,36.35
2022-10-24T07:44:39.385Z,57.90
2022-10-24T07:47:09.199Z,56.22
2022-10-24T07:49:37.421Z,57.75
2022-10-24T07:52:11.923Z,54.33
2022-10-24T07:54:39.137Z,55.30
2022-10-24T07:57:06.274Z,61.63
2022-10-24T07:59:48.536Z,68.22
2022-10-24T08:02:17.129Z,56.92
2022-10-24T08:04:45.162Z,44.95
2022-10-24T08:07:15.734Z,45.92
2022-10-24T08:09:48.421Z,38.70
2022-10-24T08:12:15.791Z,34.70
2022-10-24T08:14:43.717Z,20.10
2022-10-24T08:17:13.767Z,24.88
2022-10-24T08:19:54.828Z,24.85
2022-10-24T08:22:22.066Z,50.75
2022-10-24T08:24:49.566Z,41.88
2022-10-24T08:27:16.799Z,30.83
2022-10-24T08:29:53.475Z,36.67
2022-10-24T08:32:23.386Z,21.77
2022-10-24T08:35:08.873Z,25.77
2022-10-24T08:37:40.524Z,21.80
2022-10-24T08:40:09.673Z,17.35
2022-10-24T08:42:39.991Z,21.40
2022-10-24T08:45:18.310Z,19.38
2022-10-24T08:47:59.838Z,19.98
2022-10-24T08:50:32.765Z,28.70
2022-10-24T08:53:27.676Z,17.05
2022-10-24T08:56:08.095Z,28.75
2022-10-24T08:58:43.463Z,22.25
2022-10-24T09:01:34.217Z,17.63
2022-10-24T09:04:16.282Z,15.05
2022-10-24T09:06:46.909Z,17.83
2022-10-24T09:09:20.128Z,40.78
2022-10-24T09:11:52.715Z,32.83
2022-10-24T09:14:37.216Z,33.55
2022-10-24T09:17:24.389Z,31.98
2022-10-24T09:20:06.405Z,34.53
2022-10-24T09:22:38.488Z,23.67
2022-10-24T09:25:13.779Z,21.83
2022-10-24T09:27:46.563Z,17.55
2022-10-24T09:30:28.604Z,19.35
2022-10-24T09:33:25.139Z,14.32
2022-10-24T09:36:14.903Z,13.40
2022-10-24T09:39:07.058Z,13.75
2022-10-24T09:41:47.285Z,10.75
2022-10-24T09:44:37.012Z,8.77
2022-10-24T09:48:01.804Z,8.73
2022-10-24T09:50:45.973Z,9.18
2022-10-24T09:53:34.594Z,9.18
2022-10-24T09:56:20.063Z,7.93
2022-10-24T09:58:50.247Z,8.38
2022-10-24T10:04:46.025Z,9.48
2022-10-24T10:07:32.501Z,8.60
2022-10-24T10:42:48.083Z,13.60
2022-10-24T10:45:30.933Z,18.25
2022-10-24T10:48:23.363Z,16.08
2022-10-24T10:51:04.407Z,13.13
2022-10-24T10:54:27.915Z,13.15
2022-10-24T10:57:18.548Z,12.43
2022-10-24T11:00:08.733Z,14.60
2022-10-24T11:03:05.884Z,15.63
2022-10-24T11:06:10.106Z,12.63
2022-10-24T11:08:50.054Z,12.35
2022-10-24T11:11:23.336Z,10.77
2022-10-24T11:14:01.211Z,14.75
2022-10-24T11:16:31.053Z,11.05
2022-10-24T11:19:04.340Z,11.20
2022-10-24T11:21:36.716Z,10.82
2022-10-24T11:24:15.465Z,15.57
2022-10-24T11:27:04.888Z,10.07
2022-10-24T11:29:58.088Z,9.23
2022-10-24T11:32:50.762Z,8.25
2022-10-24T11:35:40.761Z,10.35
2022-10-24T11:38:27.100Z,8.77
2022-10-24T11:41:01.327Z,7.65
2022-10-24T11:43:36.862Z,9.27
2022-10-24T11:49:00.696Z,8.07
2022-10-24T11:51:39.321Z,8.52
2022-10-24T11:54:32.008Z,7.10
2022-10-24T11:57:16.198Z,7.80
2022-10-24T11:59:56.711Z,10.32
2022-10-24T12:03:38.859Z,7.68
2022-10-24T12:09:37.881Z,8.73
2022-10-24T12:12:28.510Z,7.13
2022-10-24T12:15:29.478Z,7.03
2022-10-24T12:18:05.775Z,6.80
2022-10-24T12:20:47.591Z,8.25
2022-10-24T12:23:30.970Z,9.80
2022-10-24T12:29:36.532Z,7.25
2022-10-24T12:32:35.371Z,9.35
2022-10-24T12:35:30.841Z,7.25
2022-10-24T12:38:02.121Z,6.03
2022-10-24T12:41:20.372Z,5.50
2022-10-24T12:45:04.718Z,8.73
2022-10-24T12:47:40.414Z,8.88
2022-10-24T12:50:22.388Z,8.32
2022-10-24T12:53:44.863Z,9.18
2022-10-24T12:58:57.719Z,10.40
2022-10-24T13:01:39.175Z,10.13
2022-10-24T13:07:50.001Z,13.45
2022-10-24T13:10:56.260Z,16.77
2022-10-24T13:13:59.282Z,12.32
2022-10-24T13:16:38.140Z,12.00
2022-10-24T13:19:20.165Z,9.88
2022-10-24T13:21:57.604Z,10.05
2022-10-24T13:24:35.729Z,8.77
2022-10-24T13:27:12.658Z,9.38
2022-10-24T13:29:40.530Z,8.75
2022-10-24T13:32:07.861Z,8.52
2022-10-24T13:34:54.133Z,8.85
2022-10-24T13:37:45.040Z,9.48
2022-10-24T13:40:34.100Z,15.38
2022-10-24T13:43:07.560Z,13.00
2022-10-24T13:45:53.025Z,9.35
2022-10-24T13:48:25.670Z,11.02
2022-10-24T13:51:23.646Z,9.27
2022-10-24T13:53:59.233Z,11.70
2022-10-24T13:56:31.348Z,10.23
2022-10-24T13:59:02.204Z,11.32
2022-10-24T14:04:11.836Z,9.88
2022-10-24T14:06:48.765Z,11.75
2022-10-24T14:09:19.429Z,11.88
2022-10-24T14:11:48.735Z,11.30
2022-10-24T14:14:35.918Z,13.88
2022-10-24T14:17:07.745Z,11.82
2022-10-24T14:19:46.701Z,11.98
2022-10-24T14:22:26.538Z,11.85
2022-10-24T14:24:57.270Z,23.00
2022-10-24T14:27:35.320Z,11.68
2022-10-24T14:30:16.368Z,17.70
2022-10-24T14:32:44.131Z,10.88
2022-10-24T14:35:26.441Z,15.25
2022-10-24T14:37:57.362Z,11.05
2022-10-24T14:40:39.223Z,11.32
2022-10-24T14:43:22.219Z,10.60
2022-10-24T14:46:37.487Z,11.45
2022-10-24T14:49:32.323Z,15.18
2022-10-24T14:52:41.138Z,14.88
2022-10-24T14:55:34.487Z,15.98
2022-10-24T14:58:12.502Z,26.17
2022-10-24T15:00:42.882Z,18.60
2022-10-24T15:03:10.933Z,14.63
2022-10-24T15:05:42.248Z,17.60
2022-10-24T15:08:21.689Z,21.90
2022-10-24T15:11:06.651Z,20.15
2022-10-24T15:13:50.903Z,22.05
2022-10-24T15:16:28.748Z,17.70
2022-10-24T15:18:58.501Z,16.50
2022-10-24T15:21:34.890Z,19.50
2022-10-24T15:24:29.110Z,19.25
2022-10-24T15:27:44.861Z,17.10
2022-10-24T15:30:25.247Z,15.95
2022-10-24T15:32:56.593Z,16.80
2022-10-24T15:35:28.019Z,17.95
2022-10-24T15:38:15.291Z,16.65
2022-10-24T15:40:49.047Z,17.20
2022-10-24T15:43:22.351Z,18.08
2022-10-24T15:45:51.743Z,16.20
2022-10-24T15:48:18.971Z,16.63
2022-10-24T15:50:51.592Z,16.95
2022-10-24T15:53:21.916Z,21.48
2022-10-24T15:55:51.319Z,18.15
2022-10-24T15:58:19.579Z,19.38
2022-10-24T16:00:51.126Z,21.50
2022-10-24T16:03:22.600Z,21.92
2022-10-24T16:05:56.153Z,23.15
2022-10-24T16:08:26.362Z,19.75
2022-10-24T16:10:53.571Z,28.50
2022-10-24T16:13:25.787Z,25.02
2022-10-24T16:15:52.784Z,23.52
2022-10-24T16:18:25.546Z,32.10
2022-10-24T16:20:52.469Z,35.72
2022-10-24T16:23:19.414Z,37.85
2022-10-24T16:25:46.523Z,40.47
2022-10-24T16:28:13.603Z,37.42
2022-10-24T16:30:42.607Z,37.22
2022-10-24T16:33:12.843Z,37.65
2022-10-24T16:35:48.162Z,33.47
2022-10-24T16:38:21.200Z,29.23
2022-10-24T16:40:50.478Z,35.20
2022-10-24T16:43:31.918Z,39.03
2022-10-24T16:46:03.719Z,37.95
2022-10-24T16:48:30.724Z,37.45
2022-10-24T16:51:00.567Z,32.20
2022-10-24T16:53:28.031Z,26.45
2022-10-24T16:55:59.586Z,34.50
2022-10-24T16:58:28.032Z,24.10
2022-10-24T17:01:10.618Z,27.33
2022-10-24T17:03:42.435Z,24.20
2022-10-24T17:06:10.203Z,27.80
2022-10-24T17:08:43.484Z,24.58
2022-10-24T17:11:39.459Z,26.75
2022-10-24T17:13:59.079Z,23.58
2022-10-24T17:16:26.195Z,21.65
2022-10-24T17:19:05.636Z,30.33
2022-10-24T17:21:39.444Z,24.20
2022-10-24T17:24:10.522Z,20.83
2022-10-24T17:26:44.257Z,22.80
2022-10-24T17:29:34.376Z,24.45
2022-10-24T17:32:06.807Z,27.00
2022-10-24T17:34:35.329Z,28.10
2022-10-24T17:37:30.022Z,27.65
2022-10-24T17:40:14.330Z,27.27
2022-10-24T17:42:44.502Z,29.95
2022-10-24T17:45:19.947Z,37.15
2022-10-24T17:47:49.650Z,45.08
2022-10-24T17:50:19.977Z,37.17
2022-10-24T17:53:01.715Z,42.90
2022-10-24T17:55:47.514Z,35.45
2022-10-24T17:58:23.501Z,40.90
2022-10-24T18:01:18.744Z,30.15
2022-10-24T18:03:48.836Z,22.65
2022-10-24T18:06:43.287Z,26.65
2022-10-24T18:09:30.345Z,23.17
2022-10-24T18:12:10.724Z,22.45
2022-10-24T18:15:22.316Z,24.30
2022-10-24T18:18:08.411Z,24.38
2022-10-24T18:20:45.044Z,22.58
2022-10-24T18:23:12.713Z,24.70
2022-10-24T18:25:51.942Z,39.85
2022-10-24T18:28:24.783Z,29.25
2022-10-24T18:30:54.429Z,24.77
2022-10-24T18:33:28.114Z,23.45
2022-10-24T18:36:15.294Z,25.85
2022-10-24T18:39:01.017Z,23.27
2022-10-24T18:41:46.842Z,22.80
2022-10-24T18:45:41.825Z,23.17
2022-10-24T18:48:15.870Z,44.35
2022-10-24T18:51:04.201Z,41.20
2022-10-24T18:53:51.850Z,25.40
2022-10-24T19:03:34.724Z,21.98
2022-10-24T19:07:13.032Z,20.80
2022-10-24T19:36:49.867Z,23.05
2022-10-24T19:39:17.555Z,21.95
2022-10-24T19:41:50.401Z,26.15
2022-10-24T19:47:30.893Z,23.95
2022-10-24T19:50:41.425Z,22.88
2022-10-24T19:53:36.855Z,24.77
2022-10-24T19:56:13.161Z,24.60
2022-10-24T19:59:37.954Z,26.55
2022-10-24T20:01:52.625Z,22.48
2022-10-24T20:04:26.775Z,22.30
2022-10-24T20:06:54.231Z,25.65
2022-10-24T20:09:29.017Z,22.50
2022-10-24T20:12:39.459Z,20.58
2022-10-24T20:15:23.605Z,20.73
2022-10-24T20:18:08.314Z,22.02
2022-10-24T20:24:41.500Z,23.25
2022-10-24T20:27:10.491Z,20.13
2022-10-24T20:30:20.591Z,21.50
2022-10-24T20:33:38.142Z,20.20
2022-10-24T20:36:05.520Z,20.35
2022-10-24T20:39:44.593Z,21.42
2022-10-24T20:42:32.594Z,19.55
2022-10-24T20:45:00.744Z,19.33
2022-10-24T20:47:31.990Z,21.38
2022-10-24T20:50:29.104Z,22.10
2022-10-24T20:53:06.584Z,20.60
2022-10-24T20:55:45.468Z,20.33
2022-10-24T20:58:20.586Z,20.67
2022-10-24T21:00:49.297Z,21.50
2022-10-24T21:03:19.745Z,21.08
2022-10-24T21:05:50.097Z,22.95
2022-10-24T21:08:25.163Z,22.38
2022-10-24T21:11:04.454Z,21.30
2022-10-24T21:13:35.536Z,23.58
2022-10-24T21:16:03.554Z,21.48
2022-10-24T21:21:28.874Z,21.33
2022-10-24T21:24:02.416Z,21.95
2022-10-24T21:26:38.804Z,27.08
2022-10-24T21:32:03.946Z,24.42
2022-10-24T21:34:38.589Z,22.88
2022-10-24T21:37:15.390Z,28.60
2022-10-24T21:45:16.355Z,22.08
2022-10-24T21:47:52.011Z,22.45
2022-10-24T21:50:22.333Z,21.70
2022-10-24T21:52:57.065Z,22.15
2022-10-24T21:58:54.591Z,22.38
2022-10-24T22:01:44.780Z,22.70
2022-10-24T22:04:18.797Z,22.27
2022-10-24T22:07:16.593Z,20.58
2022-10-24T22:09:47.416Z,23.10
2022-10-24T22:12:14.832Z,23.98
2022-10-24T22:14:44.643Z,22.83
2022-10-24T22:17:13.837Z,21.83
2022-10-24T22:19:43.238Z,21.73
2022-10-24T22:22:10.438Z,20.95
2022-10-24T22:24:37.688Z,29.45
2022-10-24T22:27:04.760Z,21.30
2022-10-24T22:29:31.892Z,21.65
2022-10-24T22:31:59.299Z,22.85
2022-10-24T22:34:27.850Z,22.27
2022-10-24T22:37:28.414Z,23.52
2022-10-24T22:40:00.759Z,23.73
2022-10-24T22:42:49.126Z,25.33
2022-10-24T22:46:04.692Z,26.52
2022-10-24T22:48:57.050Z,24.60
2022-10-24T22:51:52.167Z,23.88
2022-10-24T22:54:29.390Z,23.30
2022-10-24T22:57:08.703Z,23.10
2022-10-24T23:00:32.035Z,21.55
2022-10-24T23:03:24.431Z,22.08
2022-10-24T23:06:06.515Z,21.70
2022-10-24T23:08:40.422Z,21.95
2022-10-24T23:11:11.688Z,22.25
2022-10-24T23:13:40.220Z,21.27
2022-10-24T23:16:25.457Z,22.08
2022-10-24T23:18:52.964Z,22.40
2022-10-24T23:21:35.823Z,24.88
2022-10-24T23:24:03.161Z,22.95
2022-10-24T23:26:41.693Z,23.58
2022-10-24T23:29:32.062Z,23.08
2022-10-24T23:32:06.884Z,23.88
2022-10-24T23:34:42.779Z,23.55
2022-10-24T23:37:29.692Z,23.20
2022-10-24T23:40:26.474Z,23.23
2022-10-24T23:42:54.256Z,22.88
2022-10-24T23:45:23.925Z,21.52
2022-10-24T23:48:15.746Z,21.48
2022-10-24T23:50:57.949Z,21.25
2022-10-24T23:53:50.229Z,20.70
2022-10-24T23:56:20.408Z,20.63
2022-10-24T23:58:47.746Z,21.90
